sensor_id;sensor_type;location;lat;lon;timestamp;P1;durP1;ratioP1;P2;durP2;ratioP2
21202;SDS011;10759;51.982;9.232;2023-08-31T00:00:08;16.63;;;15.23;;
21202;SDS011;10759;51.982;9.232;2023-08-31T00:02:38;17.50;;;15.98;;
21202;SDS011;10759;51.982;9.232;2023-08-31T00:05:08;15.80;;;14.40;;
21202;SDS011;10759;51.982;9.232;2023-08-31T00:07:37;20.13;;;18.17;;
21202;SDS011;10759;51.982;9.232;2023-08-31T00:10:05;18.67;;;17.15;;
21202;SDS011;10759;51.982;9.232;2023-08-31T00:12:36;19.02;;;17.40;;
21202;SDS011;10759;51.982;9.232;2023-08-31T00:15:04;19.02;;;16.98;;
21202;SDS011;10759;51.982;9.232;2023-08-31T00:17:35;16.90;;;15.38;;
21202;SDS011;10759;51.982;9.232;2023-08-31T00:20:05;16.73;;;15.13;;
21202;SDS011;10759;51.982;9.232;2023-08-31T00:22:36;18.70;;;16.92;;
21202;SDS011;10759;51.982;9.232;2023-08-31T00:25:04;18.83;;;17.13;;
21202;SDS011;10759;51.982;9.232;2023-08-31T00:30:04;16.50;;;14.90;;
21202;SDS011;10759;51.982;9.232;2023-08-31T00:32:35;19.17;;;17.42;;
21202;SDS011;10759;51.982;9.232;2023-08-31T00:35:05;17.45;;;15.95;;
21202;SDS011;10759;51.982;9.232;2023-08-31T00:37:34;16.67;;;15.27;;
21202;SDS011;10759;51.982;9.232;2023-08-31T00:40:04;17.77;;;15.98;;
21202;SDS011;10759;51.982;9.232;2023-08-31T00:42:35;17.45;;;15.82;;
21202;SDS011;10759;51.982;9.232;2023-08-31T00:45:04;16.73;;;15.25;;
21202;SDS011;10759;51.982;9.232;2023-08-31T00:47:33;20.47;;;18.53;;
21202;SDS011;10759;51.982;9.232;2023-08-31T00:50:02;20.98;;;19.00;;
21202;SDS011;10759;51.982;9.232;2023-08-31T00:52:30;20.10;;;18.33;;
21202;SDS011;10759;51.982;9.232;2023-08-31T00:54:59;21.30;;;19.40;;
21202;SDS011;10759;51.982;9.232;2023-08-31T00:57:33;21.00;;;18.85;;
21202;SDS011;10759;51.982;9.232;2023-08-31T01:00:01;19.73;;;18.00;;
21202;SDS011;10759;51.982;9.232;2023-08-31T01:02:36;19.67;;;18.00;;
21202;SDS011;10759;51.982;9.232;2023-08-31T01:05:21;20.90;;;18.67;;
21202;SDS011;10759;51.982;9.232;2023-08-31T01:08:03;18.90;;;17.20;;
21202;SDS011;10759;51.982;9.232;2023-08-31T01:10:42;19.67;;;18.00;;
21202;SDS011;10759;51.982;9.232;2023-08-31T01:13:19;20.17;;;18.38;;
21202;SDS011;10759;51.982;9.232;2023-08-31T01:15:52;19.92;;;18.20;;
21202;SDS011;10759;51.982;9.232;2023-08-31T01:18:24;21.08;;;19.05;;
21202;SDS011;10759;51.982;9.232;2023-08-31T01:20:58;22.90;;;19.08;;
21202;SDS011;10759;51.982;9.232;2023-08-31T01:23:42;20.00;;;17.75;;
21202;SDS011;10759;51.982;9.232;2023-08-31T01:26:21;19.42;;;17.45;;
21202;SDS011;10759;51.982;9.232;2023-08-31T01:28:50;19.00;;;17.23;;
21202;SDS011;10759;51.982;9.232;2023-08-31T01:31:20;17.15;;;15.80;;
21202;SDS011;10759;51.982;9.232;2023-08-31T01:33:49;18.10;;;16.38;;
21202;SDS011;10759;51.982;9.232;2023-08-31T01:36:17;18.10;;;16.35;;
21202;SDS011;10759;51.982;9.232;2023-08-31T01:38:55;17.52;;;16.17;;
21202;SDS011;10759;51.982;9.232;2023-08-31T01:41:30;17.35;;;15.63;;
21202;SDS011;10759;51.982;9.232;2023-08-31T01:44:01;16.58;;;15.00;;
21202;SDS011;10759;51.982;9.232;2023-08-31T01:46:32;18.95;;;16.23;;
21202;SDS011;10759;51.982;9.232;2023-08-31T01:49:00;17.98;;;16.23;;
21202;SDS011;10759;51.982;9.232;2023-08-31T01:51:29;17.02;;;15.40;;
21202;SDS011;10759;51.982;9.232;2023-08-31T01:53:59;19.08;;;16.85;;
21202;SDS011;10759;51.982;9.232;2023-08-31T01:56:28;18.08;;;16.38;;
21202;SDS011;10759;51.982;9.232;2023-08-31T01:58:57;19.87;;;18.00;;
21202;SDS011;10759;51.982;9.232;2023-08-31T02:01:27;21.88;;;19.77;;
21202;SDS011;10759;51.982;9.232;2023-08-31T02:03:56;20.15;;;18.17;;
21202;SDS011;10759;51.982;9.232;2023-08-31T02:06:26;21.00;;;18.92;;
21202;SDS011;10759;51.982;9.232;2023-08-31T02:08:55;22.30;;;20.00;;
21202;SDS011;10759;51.982;9.232;2023-08-31T02:11:24;21.60;;;19.58;;
21202;SDS011;10759;51.982;9.232;2023-08-31T02:13:54;24.38;;;21.90;;
21202;SDS011;10759;51.982;9.232;2023-08-31T02:16:23;23.15;;;21.10;;
21202;SDS011;10759;51.982;9.232;2023-08-31T02:18:51;22.30;;;20.20;;
21202;SDS011;10759;51.982;9.232;2023-08-31T02:21:19;20.63;;;18.65;;
21202;SDS011;10759;51.982;9.232;2023-08-31T02:23:47;23.80;;;21.60;;
21202;SDS011;10759;51.982;9.232;2023-08-31T02:26:15;18.45;;;16.60;;
21202;SDS011;10759;51.982;9.232;2023-08-31T02:28:47;21.55;;;19.58;;
21202;SDS011;10759;51.982;9.232;2023-08-31T02:31:16;19.48;;;17.48;;
21202;SDS011;10759;51.982;9.232;2023-08-31T02:33:45;21.10;;;18.90;;
21202;SDS011;10759;51.982;9.232;2023-08-31T02:36:13;20.58;;;18.83;;
21202;SDS011;10759;51.982;9.232;2023-08-31T02:38:41;18.92;;;17.20;;
21202;SDS011;10759;51.982;9.232;2023-08-31T02:41:09;19.75;;;17.90;;
21202;SDS011;10759;51.982;9.232;2023-08-31T02:43:38;17.60;;;16.17;;
21202;SDS011;10759;51.982;9.232;2023-08-31T02:46:10;20.02;;;18.30;;
21202;SDS011;10759;51.982;9.232;2023-08-31T02:48:39;21.65;;;19.60;;
21202;SDS011;10759;51.982;9.232;2023-08-31T02:51:07;20.23;;;18.42;;
21202;SDS011;10759;51.982;9.232;2023-08-31T02:53:35;20.83;;;18.92;;
21202;SDS011;10759;51.982;9.232;2023-08-31T02:56:04;21.10;;;19.15;;
21202;SDS011;10759;51.982;9.232;2023-08-31T02:58:32;20.95;;;19.15;;
21202;SDS011;10759;51.982;9.232;2023-08-31T03:01:06;19.35;;;17.23;;
21202;SDS011;10759;51.982;9.232;2023-08-31T03:03:42;20.13;;;18.48;;
21202;SDS011;10759;51.982;9.232;2023-08-31T03:06:12;21.48;;;19.58;;
21202;SDS011;10759;51.982;9.232;2023-08-31T03:08:40;19.77;;;18.00;;
21202;SDS011;10759;51.982;9.232;2023-08-31T03:11:08;20.75;;;18.48;;
21202;SDS011;10759;51.982;9.232;2023-08-31T03:13:36;18.77;;;17.25;;
21202;SDS011;10759;51.982;9.232;2023-08-31T03:16:04;18.15;;;16.40;;
21202;SDS011;10759;51.982;9.232;2023-08-31T03:18:33;19.98;;;18.15;;
21202;SDS011;10759;51.982;9.232;2023-08-31T03:21:02;21.33;;;19.42;;
21202;SDS011;10759;51.982;9.232;2023-08-31T03:23:30;21.73;;;19.50;;
21202;SDS011;10759;51.982;9.232;2023-08-31T03:25:58;23.35;;;21.25;;
21202;SDS011;10759;51.982;9.232;2023-08-31T03:28:27;24.92;;;22.52;;
21202;SDS011;10759;51.982;9.232;2023-08-31T03:30:55;25.13;;;22.75;;
21202;SDS011;10759;51.982;9.232;2023-08-31T03:33:24;27.00;;;24.38;;
21202;SDS011;10759;51.982;9.232;2023-08-31T03:35:54;26.90;;;24.25;;
21202;SDS011;10759;51.982;9.232;2023-08-31T03:38:23;33.67;;;27.70;;
21202;SDS011;10759;51.982;9.232;2023-08-31T03:40:52;31.92;;;28.58;;
21202;SDS011;10759;51.982;9.232;2023-08-31T03:43:21;30.27;;;27.40;;
21202;SDS011;10759;51.982;9.232;2023-08-31T03:45:53;31.67;;;27.92;;
21202;SDS011;10759;51.982;9.232;2023-08-31T03:48:23;33.53;;;29.55;;
21202;SDS011;10759;51.982;9.232;2023-08-31T03:50:52;32.38;;;27.90;;
21202;SDS011;10759;51.982;9.232;2023-08-31T03:53:21;33.88;;;30.38;;
21202;SDS011;10759;51.982;9.232;2023-08-31T03:55:56;31.50;;;28.42;;
21202;SDS011;10759;51.982;9.232;2023-08-31T03:58:24;30.85;;;27.65;;
21202;SDS011;10759;51.982;9.232;2023-08-31T04:00:53;32.67;;;28.73;;
21202;SDS011;10759;51.982;9.232;2023-08-31T04:03:22;31.23;;;27.88;;
21202;SDS011;10759;51.982;9.232;2023-08-31T04:05:53;31.67;;;28.25;;
21202;SDS011;10759;51.982;9.232;2023-08-31T04:08:23;30.48;;;27.35;;
21202;SDS011;10759;51.982;9.232;2023-08-31T04:10:51;31.00;;;27.37;;
21202;SDS011;10759;51.982;9.232;2023-08-31T04:13:20;28.45;;;25.48;;
21202;SDS011;10759;51.982;9.232;2023-08-31T04:15:48;27.75;;;24.90;;
21202;SDS011;10759;51.982;9.232;2023-08-31T04:18:16;31.23;;;26.65;;
21202;SDS011;10759;51.982;9.232;2023-08-31T04:20:48;29.42;;;26.50;;
21202;SDS011;10759;51.982;9.232;2023-08-31T04:23:18;27.90;;;25.30;;
21202;SDS011;10759;51.982;9.232;2023-08-31T04:25:48;26.85;;;24.45;;
21202;SDS011;10759;51.982;9.232;2023-08-31T04:28:17;29.80;;;26.70;;
21202;SDS011;10759;51.982;9.232;2023-08-31T04:30:46;27.20;;;24.35;;
21202;SDS011;10759;51.982;9.232;2023-08-31T04:33:13;26.88;;;24.48;;
21202;SDS011;10759;51.982;9.232;2023-08-31T04:35:42;26.33;;;23.67;;
21202;SDS011;10759;51.982;9.232;2023-08-31T04:38:10;23.48;;;21.17;;
21202;SDS011;10759;51.982;9.232;2023-08-31T04:40:38;25.02;;;22.67;;
21202;SDS011;10759;51.982;9.232;2023-08-31T04:43:09;25.15;;;23.05;;
21202;SDS011;10759;51.982;9.232;2023-08-31T04:48:05;25.33;;;23.33;;
21202;SDS011;10759;51.982;9.232;2023-08-31T04:50:34;25.20;;;22.75;;
21202;SDS011;10759;51.982;9.232;2023-08-31T04:53:02;25.83;;;23.13;;
21202;SDS011;10759;51.982;9.232;2023-08-31T04:55:31;24.60;;;22.23;;
21202;SDS011;10759;51.982;9.232;2023-08-31T04:57:59;25.48;;;22.83;;
21202;SDS011;10759;51.982;9.232;2023-08-31T05:00:28;23.90;;;21.67;;
21202;SDS011;10759;51.982;9.232;2023-08-31T05:02:56;24.40;;;22.37;;
21202;SDS011;10759;51.982;9.232;2023-08-31T05:05:24;25.65;;;23.23;;
21202;SDS011;10759;51.982;9.232;2023-08-31T05:07:53;23.35;;;21.30;;
21202;SDS011;10759;51.982;9.232;2023-08-31T05:10:20;23.33;;;20.95;;
21202;SDS011;10759;51.982;9.232;2023-08-31T05:12:49;23.42;;;21.27;;
21202;SDS011;10759;51.982;9.232;2023-08-31T05:15:18;23.80;;;21.80;;
21202;SDS011;10759;51.982;9.232;2023-08-31T05:17:47;22.77;;;20.52;;
21202;SDS011;10759;51.982;9.232;2023-08-31T05:20:17;22.65;;;20.48;;
21202;SDS011;10759;51.982;9.232;2023-08-31T05:22:45;22.73;;;20.55;;
21202;SDS011;10759;51.982;9.232;2023-08-31T05:25:13;22.55;;;20.25;;
21202;SDS011;10759;51.982;9.232;2023-08-31T05:27:42;22.92;;;20.65;;
21202;SDS011;10759;51.982;9.232;2023-08-31T05:30:10;21.20;;;19.30;;
21202;SDS011;10759;51.982;9.232;2023-08-31T05:32:38;19.73;;;17.88;;
21202;SDS011;10759;51.982;9.232;2023-08-31T05:35:07;21.50;;;19.50;;
21202;SDS011;10759;51.982;9.232;2023-08-31T05:37:36;21.50;;;19.33;;
21202;SDS011;10759;51.982;9.232;2023-08-31T05:40:05;19.52;;;17.88;;
21202;SDS011;10759;51.982;9.232;2023-08-31T05:42:36;19.90;;;18.10;;
21202;SDS011;10759;51.982;9.232;2023-08-31T05:45:05;20.15;;;18.35;;
21202;SDS011;10759;51.982;9.232;2023-08-31T05:47:35;19.65;;;17.95;;
21202;SDS011;10759;51.982;9.232;2023-08-31T05:50:05;19.42;;;17.73;;
21202;SDS011;10759;51.982;9.232;2023-08-31T05:52:35;17.65;;;16.25;;
21202;SDS011;10759;51.982;9.232;2023-08-31T05:55:04;19.08;;;17.38;;
21202;SDS011;10759;51.982;9.232;2023-08-31T05:57:33;20.35;;;18.65;;
21202;SDS011;10759;51.982;9.232;2023-08-31T06:00:01;18.35;;;16.83;;
21202;SDS011;10759;51.982;9.232;2023-08-31T06:02:38;18.70;;;16.00;;
21202;SDS011;10759;51.982;9.232;2023-08-31T06:05:08;17.73;;;16.25;;
21202;SDS011;10759;51.982;9.232;2023-08-31T06:07:38;16.77;;;15.50;;
21202;SDS011;10759;51.982;9.232;2023-08-31T06:10:07;16.15;;;14.93;;
21202;SDS011;10759;51.982;9.232;2023-08-31T06:12:36;17.05;;;15.60;;
21202;SDS011;10759;51.982;9.232;2023-08-31T06:15:05;18.35;;;16.85;;
21202;SDS011;10759;51.982;9.232;2023-08-31T06:17:34;17.75;;;16.45;;
21202;SDS011;10759;51.982;9.232;2023-08-31T06:20:03;16.50;;;15.20;;
21202;SDS011;10759;51.982;9.232;2023-08-31T06:22:34;16.48;;;15.02;;
21202;SDS011;10759;51.982;9.232;2023-08-31T06:25:03;15.15;;;13.85;;
21202;SDS011;10759;51.982;9.232;2023-08-31T06:27:32;18.85;;;15.68;;
21202;SDS011;10759;51.982;9.232;2023-08-31T06:30:00;15.85;;;14.73;;
21202;SDS011;10759;51.982;9.232;2023-08-31T06:32:30;13.93;;;12.77;;
21202;SDS011;10759;51.982;9.232;2023-08-31T06:34:58;14.63;;;13.43;;
21202;SDS011;10759;51.982;9.232;2023-08-31T06:37:26;12.82;;;11.90;;
21202;SDS011;10759;51.982;9.232;2023-08-31T06:39:57;11.48;;;10.57;;
21202;SDS011;10759;51.982;9.232;2023-08-31T06:42:24;12.10;;;11.20;;
21202;SDS011;10759;51.982;9.232;2023-08-31T06:44:53;12.93;;;11.82;;
21202;SDS011;10759;51.982;9.232;2023-08-31T06:49:51;12.98;;;11.88;;
21202;SDS011;10759;51.982;9.232;2023-08-31T06:52:19;13.25;;;12.02;;
21202;SDS011;10759;51.982;9.232;2023-08-31T06:54:59;12.52;;;11.52;;
21202;SDS011;10759;51.982;9.232;2023-08-31T06:57:27;11.07;;;10.15;;
21202;SDS011;10759;51.982;9.232;2023-08-31T06:59:55;12.38;;;9.75;;
21202;SDS011;10759;51.982;9.232;2023-08-31T07:02:25;12.45;;;11.45;;
21202;SDS011;10759;51.982;9.232;2023-08-31T07:04:54;11.88;;;10.88;;
21202;SDS011;10759;51.982;9.232;2023-08-31T07:07:23;11.30;;;10.40;;
21202;SDS011;10759;51.982;9.232;2023-08-31T07:09:51;14.52;;;10.57;;
21202;SDS011;10759;51.982;9.232;2023-08-31T07:12:22;11.27;;;10.37;;
21202;SDS011;10759;51.982;9.232;2023-08-31T07:14:50;10.68;;;9.48;;
21202;SDS011;10759;51.982;9.232;2023-08-31T07:17:19;11.05;;;9.95;;
21202;SDS011;10759;51.982;9.232;2023-08-31T07:19:47;11.23;;;10.43;;
21202;SDS011;10759;51.982;9.232;2023-08-31T07:22:15;10.65;;;9.77;;
21202;SDS011;10759;51.982;9.232;2023-08-31T07:24:44;11.85;;;10.75;;
21202;SDS011;10759;51.982;9.232;2023-08-31T07:27:12;12.07;;;10.93;;
21202;SDS011;10759;51.982;9.232;2023-08-31T07:29:42;10.75;;;9.50;;
21202;SDS011;10759;51.982;9.232;2023-08-31T07:32:10;10.82;;;9.82;;
21202;SDS011;10759;51.982;9.232;2023-08-31T07:34:38;10.60;;;9.80;;
21202;SDS011;10759;51.982;9.232;2023-08-31T07:37:06;9.80;;;9.02;;
21202;SDS011;10759;51.982;9.232;2023-08-31T07:39:34;10.15;;;9.30;;
21202;SDS011;10759;51.982;9.232;2023-08-31T07:42:04;12.48;;;11.23;;
21202;SDS011;10759;51.982;9.232;2023-08-31T07:44:33;11.77;;;10.90;;
21202;SDS011;10759;51.982;9.232;2023-08-31T07:47:02;10.93;;;9.80;;
21202;SDS011;10759;51.982;9.232;2023-08-31T07:49:30;11.77;;;10.60;;
21202;SDS011;10759;51.982;9.232;2023-08-31T07:51:58;10.25;;;9.25;;
21202;SDS011;10759;51.982;9.232;2023-08-31T07:54:27;9.77;;;8.93;;
21202;SDS011;10759;51.982;9.232;2023-08-31T07:56:56;9.27;;;8.20;;
21202;SDS011;10759;51.982;9.232;2023-08-31T07:59:25;9.68;;;8.88;;
21202;SDS011;10759;51.982;9.232;2023-08-31T08:01:54;9.32;;;8.35;;
21202;SDS011;10759;51.982;9.232;2023-08-31T08:04:25;8.30;;;7.50;;
21202;SDS011;10759;51.982;9.232;2023-08-31T08:06:53;9.23;;;7.53;;
21202;SDS011;10759;51.982;9.232;2023-08-31T08:09:21;7.45;;;6.90;;
21202;SDS011;10759;51.982;9.232;2023-08-31T08:11:51;8.30;;;7.55;;
21202;SDS011;10759;51.982;9.232;2023-08-31T08:14:19;9.15;;;8.35;;
21202;SDS011;10759;51.982;9.232;2023-08-31T08:16:47;8.20;;;7.15;;
21202;SDS011;10759;51.982;9.232;2023-08-31T08:19:20;7.80;;;7.13;;
21202;SDS011;10759;51.982;9.232;2023-08-31T08:21:51;8.23;;;6.70;;
21202;SDS011;10759;51.982;9.232;2023-08-31T08:24:19;7.20;;;6.50;;
21202;SDS011;10759;51.982;9.232;2023-08-31T08:26:47;6.28;;;5.75;;
21202;SDS011;10759;51.982;9.232;2023-08-31T08:29:17;5.07;;;4.72;;
21202;SDS011;10759;51.982;9.232;2023-08-31T08:31:46;5.70;;;5.20;;
21202;SDS011;10759;51.982;9.232;2023-08-31T08:34:13;6.22;;;5.32;;
21202;SDS011;10759;51.982;9.232;2023-08-31T08:36:42;6.82;;;6.13;;
21202;SDS011;10759;51.982;9.232;2023-08-31T08:39:11;6.13;;;5.53;;
21202;SDS011;10759;51.982;9.232;2023-08-31T08:41:40;6.00;;;5.50;;
21202;SDS011;10759;51.982;9.232;2023-08-31T08:44:11;6.25;;;5.70;;
21202;SDS011;10759;51.982;9.232;2023-08-31T08:46:44;6.40;;;5.80;;
21202;SDS011;10759;51.982;9.232;2023-08-31T08:49:14;8.48;;;5.47;;
21202;SDS011;10759;51.982;9.232;2023-08-31T08:51:43;5.80;;;5.40;;
21202;SDS011;10759;51.982;9.232;2023-08-31T08:54:14;6.82;;;4.85;;
21202;SDS011;10759;51.982;9.232;2023-08-31T08:56:43;5.82;;;5.32;;
21202;SDS011;10759;51.982;9.232;2023-08-31T08:59:12;6.85;;;6.35;;
21202;SDS011;10759;51.982;9.232;2023-08-31T09:01:40;6.45;;;5.95;;
21202;SDS011;10759;51.982;9.232;2023-08-31T09:04:09;5.63;;;5.22;;
21202;SDS011;10759;51.982;9.232;2023-08-31T09:06:38;5.05;;;4.60;;
21202;SDS011;10759;51.982;9.232;2023-08-31T09:09:07;5.50;;;5.00;;
21202;SDS011;10759;51.982;9.232;2023-08-31T09:11:37;6.97;;;6.27;;
21202;SDS011;10759;51.982;9.232;2023-08-31T09:14:14;5.35;;;4.90;;
21202;SDS011;10759;51.982;9.232;2023-08-31T09:16:44;7.40;;;5.43;;
21202;SDS011;10759;51.982;9.232;2023-08-31T09:19:17;5.65;;;5.13;;
21202;SDS011;10759;51.982;9.232;2023-08-31T09:21:47;5.43;;;5.03;;
21202;SDS011;10759;51.982;9.232;2023-08-31T09:24:20;6.35;;;5.78;;
21202;SDS011;10759;51.982;9.232;2023-08-31T09:26:51;6.78;;;6.07;;
21202;SDS011;10759;51.982;9.232;2023-08-31T09:29:21;5.72;;;5.32;;
21202;SDS011;10759;51.982;9.232;2023-08-31T09:31:50;5.88;;;5.28;;
21202;SDS011;10759;51.982;9.232;2023-08-31T09:34:19;6.80;;;6.10;;
21202;SDS011;10759;51.982;9.232;2023-08-31T09:36:48;8.15;;;5.93;;
21202;SDS011;10759;51.982;9.232;2023-08-31T09:39:17;6.72;;;6.20;;
21202;SDS011;10759;51.982;9.232;2023-08-31T09:41:55;6.10;;;5.53;;
21202;SDS011;10759;51.982;9.232;2023-08-31T09:44:25;6.80;;;6.13;;
21202;SDS011;10759;51.982;9.232;2023-08-31T09:46:54;6.53;;;6.03;;
21202;SDS011;10759;51.982;9.232;2023-08-31T09:49:22;5.95;;;5.45;;
21202;SDS011;10759;51.982;9.232;2023-08-31T09:51:52;7.20;;;6.50;;
21202;SDS011;10759;51.982;9.232;2023-08-31T09:54:20;7.07;;;5.10;;
21202;SDS011;10759;51.982;9.232;2023-08-31T09:56:50;7.38;;;5.63;;
21202;SDS011;10759;51.982;9.232;2023-08-31T09:59:22;6.55;;;5.53;;
21202;SDS011;10759;51.982;9.232;2023-08-31T10:01:52;5.45;;;4.95;;
21202;SDS011;10759;51.982;9.232;2023-08-31T10:04:22;6.00;;;5.40;;
21202;SDS011;10759;51.982;9.232;2023-08-31T10:06:51;5.40;;;4.43;;
21202;SDS011;10759;51.982;9.232;2023-08-31T10:09:19;6.38;;;4.97;;
21202;SDS011;10759;51.982;9.232;2023-08-31T10:11:49;5.45;;;4.90;;
21202;SDS011;10759;51.982;9.232;2023-08-31T10:14:18;4.18;;;3.88;;
21202;SDS011;10759;51.982;9.232;2023-08-31T10:16:50;4.13;;;3.80;;
21202;SDS011;10759;51.982;9.232;2023-08-31T10:19:21;4.32;;;3.90;;
21202;SDS011;10759;51.982;9.232;2023-08-31T10:21:49;5.47;;;4.15;;
21202;SDS011;10759;51.982;9.232;2023-08-31T10:24:17;4.72;;;3.80;;
21202;SDS011;10759;51.982;9.232;2023-08-31T10:26:45;4.13;;;3.83;;
21202;SDS011;10759;51.982;9.232;2023-08-31T10:29:25;3.92;;;3.63;;
21202;SDS011;10759;51.982;9.232;2023-08-31T10:31:58;4.35;;;4.00;;
21202;SDS011;10759;51.982;9.232;2023-08-31T10:34:34;4.28;;;3.88;;
21202;SDS011;10759;51.982;9.232;2023-08-31T10:37:12;4.07;;;3.78;;
21202;SDS011;10759;51.982;9.232;2023-08-31T10:39:49;4.90;;;4.15;;
21202;SDS011;10759;51.982;9.232;2023-08-31T10:42:41;3.55;;;3.25;;
21202;SDS011;10759;51.982;9.232;2023-08-31T10:45:12;4.18;;;3.50;;
21202;SDS011;10759;51.982;9.232;2023-08-31T10:47:43;5.13;;;3.38;;
21202;SDS011;10759;51.982;9.232;2023-08-31T10:50:15;5.13;;;3.90;;
21202;SDS011;10759;51.982;9.232;2023-08-31T10:52:46;3.58;;;3.28;;
21202;SDS011;10759;51.982;9.232;2023-08-31T10:55:14;4.28;;;3.88;;
21202;SDS011;10759;51.982;9.232;2023-08-31T10:57:43;3.67;;;3.38;;
21202;SDS011;10759;51.982;9.232;2023-08-31T11:00:12;4.22;;;3.38;;
21202;SDS011;10759;51.982;9.232;2023-08-31T11:02:43;5.93;;;3.58;;
21202;SDS011;10759;51.982;9.232;2023-08-31T11:05:13;3.88;;;3.17;;
21202;SDS011;10759;51.982;9.232;2023-08-31T11:07:43;4.18;;;3.70;;
21202;SDS011;10759;51.982;9.232;2023-08-31T11:10:14;4.78;;;3.28;;
21202;SDS011;10759;51.982;9.232;2023-08-31T11:12:45;3.65;;;3.03;;
21202;SDS011;10759;51.982;9.232;2023-08-31T11:15:14;4.23;;;3.50;;
21202;SDS011;10759;51.982;9.232;2023-08-31T11:17:45;5.53;;;3.55;;
21202;SDS011;10759;51.982;9.232;2023-08-31T11:20:14;3.67;;;3.25;;
21202;SDS011;10759;51.982;9.232;2023-08-31T11:22:44;3.72;;;3.22;;
21202;SDS011;10759;51.982;9.232;2023-08-31T11:25:17;3.30;;;3.00;;
21202;SDS011;10759;51.982;9.232;2023-08-31T11:27:52;5.05;;;2.75;;
21202;SDS011;10759;51.982;9.232;2023-08-31T11:30:22;3.47;;;3.13;;
21202;SDS011;10759;51.982;9.232;2023-08-31T11:32:53;6.55;;;3.10;;
21202;SDS011;10759;51.982;9.232;2023-08-31T11:35:22;3.25;;;2.63;;
21202;SDS011;10759;51.982;9.232;2023-08-31T11:37:51;4.95;;;2.13;;
21202;SDS011;10759;51.982;9.232;2023-08-31T11:40:20;5.05;;;2.47;;
21202;SDS011;10759;51.982;9.232;2023-08-31T11:42:49;5.95;;;2.30;;
21202;SDS011;10759;51.982;9.232;2023-08-31T11:45:17;5.60;;;3.15;;
21202;SDS011;10759;51.982;9.232;2023-08-31T11:47:47;5.80;;;2.80;;
21202;SDS011;10759;51.982;9.232;2023-08-31T11:50:17;3.67;;;1.85;;
21202;SDS011;10759;51.982;9.232;2023-08-31T11:52:46;3.08;;;2.17;;
21202;SDS011;10759;51.982;9.232;2023-08-31T11:55:15;3.35;;;2.10;;
21202;SDS011;10759;51.982;9.232;2023-08-31T11:57:48;5.95;;;2.53;;
21202;SDS011;10759;51.982;9.232;2023-08-31T12:00:17;4.63;;;2.60;;
21202;SDS011;10759;51.982;9.232;2023-08-31T12:02:53;4.00;;;2.80;;
21202;SDS011;10759;51.982;9.232;2023-08-31T12:05:25;3.28;;;2.67;;
21202;SDS011;10759;51.982;9.232;2023-08-31T12:10:23;4.00;;;2.47;;
21202;SDS011;10759;51.982;9.232;2023-08-31T12:13:07;4.28;;;2.50;;
21202;SDS011;10759;51.982;9.232;2023-08-31T12:15:38;6.78;;;2.92;;
21202;SDS011;10759;51.982;9.232;2023-08-31T12:18:07;2.72;;;2.03;;
21202;SDS011;10759;51.982;9.232;2023-08-31T12:20:44;2.50;;;2.30;;
21202;SDS011;10759;51.982;9.232;2023-08-31T12:23:13;3.03;;;2.72;;
21202;SDS011;10759;51.982;9.232;2023-08-31T12:25:46;7.30;;;2.63;;
21202;SDS011;10759;51.982;9.232;2023-08-31T12:28:18;3.42;;;2.53;;
21202;SDS011;10759;51.982;9.232;2023-08-31T12:30:47;4.20;;;2.20;;
21202;SDS011;10759;51.982;9.232;2023-08-31T12:33:16;3.35;;;2.33;;
21202;SDS011;10759;51.982;9.232;2023-08-31T12:35:47;3.13;;;2.47;;
21202;SDS011;10759;51.982;9.232;2023-08-31T12:38:15;4.53;;;2.30;;
21202;SDS011;10759;51.982;9.232;2023-08-31T12:40:44;3.80;;;2.92;;
21202;SDS011;10759;51.982;9.232;2023-08-31T12:43:12;4.32;;;2.17;;
21202;SDS011;10759;51.982;9.232;2023-08-31T12:45:41;2.00;;;1.83;;
21202;SDS011;10759;51.982;9.232;2023-08-31T12:48:09;3.10;;;1.55;;
21202;SDS011;10759;51.982;9.232;2023-08-31T12:50:37;4.63;;;1.90;;
21202;SDS011;10759;51.982;9.232;2023-08-31T12:53:07;3.13;;;1.63;;
21202;SDS011;10759;51.982;9.232;2023-08-31T12:55:35;2.10;;;1.90;;
21202;SDS011;10759;51.982;9.232;2023-08-31T12:58:04;4.15;;;1.63;;
21202;SDS011;10759;51.982;9.232;2023-08-31T13:00:32;4.88;;;1.98;;
21202;SDS011;10759;51.982;9.232;2023-08-31T13:03:00;2.92;;;1.70;;
21202;SDS011;10759;51.982;9.232;2023-08-31T13:05:29;3.78;;;1.88;;
21202;SDS011;10759;51.982;9.232;2023-08-31T13:07:58;2.75;;;2.10;;
21202;SDS011;10759;51.982;9.232;2023-08-31T13:10:27;2.72;;;2.05;;
21202;SDS011;10759;51.982;9.232;2023-08-31T13:12:55;2.33;;;2.15;;
21202;SDS011;10759;51.982;9.232;2023-08-31T13:15:24;6.13;;;2.53;;
21202;SDS011;10759;51.982;9.232;2023-08-31T13:17:52;4.13;;;2.30;;
21202;SDS011;10759;51.982;9.232;2023-08-31T13:20:20;5.47;;;2.25;;
21202;SDS011;10759;51.982;9.232;2023-08-31T13:22:49;6.32;;;2.17;;
21202;SDS011;10759;51.982;9.232;2023-08-31T13:25:18;4.30;;;2.13;;
21202;SDS011;10759;51.982;9.232;2023-08-31T13:27:47;4.70;;;2.13;;
21202;SDS011;10759;51.982;9.232;2023-08-31T13:30:15;4.00;;;2.22;;
21202;SDS011;10759;51.982;9.232;2023-08-31T13:32:44;3.08;;;1.30;;
21202;SDS011;10759;51.982;9.232;2023-08-31T13:35:12;2.42;;;1.70;;
21202;SDS011;10759;51.982;9.232;2023-08-31T13:37:41;1.77;;;1.17;;
21202;SDS011;10759;51.982;9.232;2023-08-31T13:40:09;3.15;;;1.42;;
21202;SDS011;10759;51.982;9.232;2023-08-31T13:42:43;2.35;;;1.27;;
21202;SDS011;10759;51.982;9.232;2023-08-31T13:45:23;2.00;;;1.23;;
21202;SDS011;10759;51.982;9.232;2023-08-31T13:47:51;2.25;;;1.60;;
21202;SDS011;10759;51.982;9.232;2023-08-31T13:50:19;2.20;;;1.30;;
21202;SDS011;10759;51.982;9.232;2023-08-31T13:52:48;2.65;;;1.23;;
21202;SDS011;10759;51.982;9.232;2023-08-31T13:55:16;2.75;;;1.13;;
21202;SDS011;10759;51.982;9.232;2023-08-31T13:57:45;2.38;;;1.35;;
21202;SDS011;10759;51.982;9.232;2023-08-31T14:00:15;2.38;;;1.48;;
21202;SDS011;10759;51.982;9.232;2023-08-31T14:02:44;3.63;;;1.40;;
21202;SDS011;10759;51.982;9.232;2023-08-31T14:05:12;2.00;;;1.27;;
21202;SDS011;10759;51.982;9.232;2023-08-31T14:07:41;2.42;;;1.30;;
21202;SDS011;10759;51.982;9.232;2023-08-31T14:10:09;3.47;;;1.65;;
21202;SDS011;10759;51.982;9.232;2023-08-31T14:12:37;3.53;;;1.77;;
21202;SDS011;10759;51.982;9.232;2023-08-31T14:15:06;3.00;;;1.38;;
21202;SDS011;10759;51.982;9.232;2023-08-31T14:17:36;3.28;;;1.40;;
21202;SDS011;10759;51.982;9.232;2023-08-31T14:20:04;4.07;;;1.90;;
21202;SDS011;10759;51.982;9.232;2023-08-31T14:22:35;4.38;;;1.60;;
21202;SDS011;10759;51.982;9.232;2023-08-31T14:25:04;1.98;;;1.48;;
21202;SDS011;10759;51.982;9.232;2023-08-31T14:27:33;1.65;;;1.50;;
21202;SDS011;10759;51.982;9.232;2023-08-31T14:30:01;3.90;;;2.03;;
21202;SDS011;10759;51.982;9.232;2023-08-31T14:32:29;1.70;;;1.60;;
21202;SDS011;10759;51.982;9.232;2023-08-31T14:34:59;2.95;;;1.90;;
21202;SDS011;10759;51.982;9.232;2023-08-31T14:37:27;3.75;;;1.80;;
21202;SDS011;10759;51.982;9.232;2023-08-31T14:39:56;3.47;;;1.67;;
21202;SDS011;10759;51.982;9.232;2023-08-31T14:42:24;2.53;;;1.70;;
21202;SDS011;10759;51.982;9.232;2023-08-31T14:44:52;3.03;;;1.60;;
21202;SDS011;10759;51.982;9.232;2023-08-31T14:47:20;4.00;;;1.13;;
21202;SDS011;10759;51.982;9.232;2023-08-31T14:49:49;2.25;;;1.48;;
21202;SDS011;10759;51.982;9.232;2023-08-31T14:52:19;3.00;;;1.80;;
21202;SDS011;10759;51.982;9.232;2023-08-31T14:54:47;1.93;;;1.07;;
21202;SDS011;10759;51.982;9.232;2023-08-31T14:57:15;3.63;;;1.42;;